sensor_id;sensor_type;location;lat;lon;timestamp;P1;durP1;ratioP1;P2;durP2;ratioP2
7529;SDS011;3806;52.270;10.544;2023-07-24T00:01:03;2.25;;;1.10;;
7529;SDS011;3806;52.270;10.544;2023-07-24T00:03:28;1.60;;;1.10;;
7529;SDS011;3806;52.270;10.544;2023-07-24T00:05:57;1.58;;;0.82;;
7529;SDS011;3806;52.270;10.544;2023-07-24T00:08:24;2.53;;;1.40;;
7529;SDS011;3806;52.270;10.544;2023-07-24T00:10:49;2.08;;;0.70;;
7529;SDS011;3806;52.270;10.544;2023-07-24T00:13:15;1.67;;;1.05;;
7529;SDS011;3806;52.270;10.544;2023-07-24T00:15:40;1.25;;;1.15;;
7529;SDS011;3806;52.270;10.544;2023-07-24T00:18:06;1.80;;;1.10;;
7529;SDS011;3806;52.270;10.544;2023-07-24T00:20:31;1.67;;;1.08;;
7529;SDS011;3806;52.270;10.544;2023-07-24T00:22:57;1.92;;;1.20;;
7529;SDS011;3806;52.270;10.544;2023-07-24T00:25:22;1.77;;;1.05;;
7529;SDS011;3806;52.270;10.544;2023-07-24T00:27:48;1.98;;;1.20;;
7529;SDS011;3806;52.270;10.544;2023-07-24T00:30:13;2.42;;;1.10;;
7529;SDS011;3806;52.270;10.544;2023-07-24T00:32:39;1.67;;;0.93;;
7529;SDS011;3806;52.270;10.544;2023-07-24T00:35:05;1.75;;;0.90;;
7529;SDS011;3806;52.270;10.544;2023-07-24T00:37:31;1.67;;;0.98;;
7529;SDS011;3806;52.270;10.544;2023-07-24T00:39:56;2.08;;;0.80;;
7529;SDS011;3806;52.270;10.544;2023-07-24T00:42:22;1.65;;;0.70;;
7529;SDS011;3806;52.270;10.544;2023-07-24T00:44:47;2.60;;;1.17;;
7529;SDS011;3806;52.270;10.544;2023-07-24T00:47:13;2.03;;;0.82;;
7529;SDS011;3806;52.270;10.544;2023-07-24T00:49:38;1.58;;;1.02;;
7529;SDS011;3806;52.270;10.544;2023-07-24T00:52:05;1.58;;;0.70;;
7529;SDS011;3806;52.270;10.544;2023-07-24T00:54:31;1.50;;;0.95;;
7529;SDS011;3806;52.270;10.544;2023-07-24T00:56:57;1.42;;;1.00;;
7529;SDS011;3806;52.270;10.544;2023-07-24T00:59:23;1.48;;;0.95;;
7529;SDS011;3806;52.270;10.544;2023-07-24T01:01:49;2.15;;;1.02;;
7529;SDS011;3806;52.270;10.544;2023-07-24T01:04:15;2.22;;;1.10;;
7529;SDS011;3806;52.270;10.544;2023-07-24T01:06:40;1.88;;;1.17;;
7529;SDS011;3806;52.270;10.544;2023-07-24T01:09:06;1.35;;;0.98;;
7529;SDS011;3806;52.270;10.544;2023-07-24T01:11:50;2.83;;;0.98;;
7529;SDS011;3806;52.270;10.544;2023-07-24T01:14:23;0.88;;;0.80;;
7529;SDS011;3806;52.270;10.544;2023-07-24T01:16:52;1.48;;;1.10;;
7529;SDS011;3806;52.270;10.544;2023-07-24T01:19:25;1.88;;;1.23;;
7529;SDS011;3806;52.270;10.544;2023-07-24T01:25:00;3.15;;;1.05;;
7529;SDS011;3806;52.270;10.544;2023-07-24T01:27:40;2.85;;;1.02;;
7529;SDS011;3806;52.270;10.544;2023-07-24T01:30:07;1.40;;;1.05;;
7529;SDS011;3806;52.270;10.544;2023-07-24T01:32:33;1.23;;;0.75;;
7529;SDS011;3806;52.270;10.544;2023-07-24T01:34:59;0.95;;;0.60;;
7529;SDS011;3806;52.270;10.544;2023-07-24T01:37:24;2.63;;;1.10;;
7529;SDS011;3806;52.270;10.544;2023-07-24T01:39:51;1.73;;;0.80;;
7529;SDS011;3806;52.270;10.544;2023-07-24T01:42:18;1.08;;;0.93;;
7529;SDS011;3806;52.270;10.544;2023-07-24T01:44:43;0.88;;;0.80;;
7529;SDS011;3806;52.270;10.544;2023-07-24T01:47:09;1.40;;;0.98;;
7529;SDS011;3806;52.270;10.544;2023-07-24T01:49:34;1.15;;;0.80;;
7529;SDS011;3806;52.270;10.544;2023-07-24T01:52:00;1.55;;;0.93;;
7529;SDS011;3806;52.270;10.544;2023-07-24T01:54:26;2.03;;;1.10;;
7529;SDS011;3806;52.270;10.544;2023-07-24T01:56:52;2.72;;;0.77;;
7529;SDS011;3806;52.270;10.544;2023-07-24T01:59:17;2.03;;;1.00;;
7529;SDS011;3806;52.270;10.544;2023-07-24T02:01:43;2.15;;;1.10;;
7529;SDS011;3806;52.270;10.544;2023-07-24T02:04:08;1.40;;;0.90;;
7529;SDS011;3806;52.270;10.544;2023-07-24T02:06:34;2.60;;;1.17;;
7529;SDS011;3806;52.270;10.544;2023-07-24T02:08:59;1.92;;;0.95;;
7529;SDS011;3806;52.270;10.544;2023-07-24T02:11:25;1.25;;;0.80;;
7529;SDS011;3806;52.270;10.544;2023-07-24T02:13:50;2.10;;;1.10;;
7529;SDS011;3806;52.270;10.544;2023-07-24T02:16:16;0.98;;;0.80;;
7529;SDS011;3806;52.270;10.544;2023-07-24T02:18:42;1.20;;;0.80;;
7529;SDS011;3806;52.270;10.544;2023-07-24T02:21:08;1.60;;;0.90;;
7529;SDS011;3806;52.270;10.544;2023-07-24T02:23:33;2.45;;;1.13;;
7529;SDS011;3806;52.270;10.544;2023-07-24T02:25:59;1.60;;;1.00;;
7529;SDS011;3806;52.270;10.544;2023-07-24T02:28:25;3.60;;;1.13;;
7529;SDS011;3806;52.270;10.544;2023-07-24T02:30:51;2.03;;;1.13;;
7529;SDS011;3806;52.270;10.544;2023-07-24T02:33:20;2.88;;;1.02;;
7529;SDS011;3806;52.270;10.544;2023-07-24T02:35:46;2.05;;;1.25;;
7529;SDS011;3806;52.270;10.544;2023-07-24T02:38:12;1.20;;;0.80;;
7529;SDS011;3806;52.270;10.544;2023-07-24T02:40:37;1.58;;;0.98;;
7529;SDS011;3806;52.270;10.544;2023-07-24T02:43:06;0.98;;;0.80;;
7529;SDS011;3806;52.270;10.544;2023-07-24T02:45:33;1.60;;;1.00;;
7529;SDS011;3806;52.270;10.544;2023-07-24T02:47:59;2.63;;;1.13;;
7529;SDS011;3806;52.270;10.544;2023-07-24T02:50:26;2.10;;;0.98;;
7529;SDS011;3806;52.270;10.544;2023-07-24T02:52:52;1.10;;;0.90;;
7529;SDS011;3806;52.270;10.544;2023-07-24T02:55:18;2.22;;;1.17;;
7529;SDS011;3806;52.270;10.544;2023-07-24T02:57:43;1.23;;;0.80;;
7529;SDS011;3806;52.270;10.544;2023-07-24T03:00:09;1.60;;;1.30;;
7529;SDS011;3806;52.270;10.544;2023-07-24T03:02:35;1.55;;;0.93;;
7529;SDS011;3806;52.270;10.544;2023-07-24T03:05:01;1.73;;;0.82;;
7529;SDS011;3806;52.270;10.544;2023-07-24T03:07:27;1.88;;;1.20;;
7529;SDS011;3806;52.270;10.544;2023-07-24T03:09:52;2.47;;;1.13;;
7529;SDS011;3806;52.270;10.544;2023-07-24T03:12:18;2.33;;;1.25;;
7529;SDS011;3806;52.270;10.544;2023-07-24T03:14:43;2.08;;;1.10;;
7529;SDS011;3806;52.270;10.544;2023-07-24T03:17:09;2.25;;;1.48;;
7529;SDS011;3806;52.270;10.544;2023-07-24T03:19:34;2.70;;;1.40;;
7529;SDS011;3806;52.270;10.544;2023-07-24T03:22:00;5.25;;;1.70;;
7529;SDS011;3806;52.270;10.544;2023-07-24T03:24:25;2.83;;;1.20;;
7529;SDS011;3806;52.270;10.544;2023-07-24T03:26:51;2.13;;;1.20;;
7529;SDS011;3806;52.270;10.544;2023-07-24T03:29:16;1.45;;;1.10;;
7529;SDS011;3806;52.270;10.544;2023-07-24T03:31:42;4.05;;;1.50;;
7529;SDS011;3806;52.270;10.544;2023-07-24T03:34:07;1.98;;;1.25;;
7529;SDS011;3806;52.270;10.544;2023-07-24T03:36:33;2.85;;;1.60;;
7529;SDS011;3806;52.270;10.544;2023-07-24T03:39:00;2.58;;;1.55;;
7529;SDS011;3806;52.270;10.544;2023-07-24T03:41:26;2.22;;;1.38;;
7529;SDS011;3806;52.270;10.544;2023-07-24T03:43:51;4.53;;;2.10;;
7529;SDS011;3806;52.270;10.544;2023-07-24T03:46:17;6.15;;;1.83;;
7529;SDS011;3806;52.270;10.544;2023-07-24T03:48:42;4.95;;;1.90;;
7529;SDS011;3806;52.270;10.544;2023-07-24T03:51:08;2.60;;;1.42;;
7529;SDS011;3806;52.270;10.544;2023-07-24T03:53:34;3.58;;;2.13;;
7529;SDS011;3806;52.270;10.544;2023-07-24T03:55:59;4.72;;;1.60;;
7529;SDS011;3806;52.270;10.544;2023-07-24T03:58:25;5.00;;;1.90;;
7529;SDS011;3806;52.270;10.544;2023-07-24T04:00:50;3.25;;;1.63;;
7529;SDS011;3806;52.270;10.544;2023-07-24T04:03:16;2.67;;;1.40;;
7529;SDS011;3806;52.270;10.544;2023-07-24T04:05:42;5.05;;;1.52;;
7529;SDS011;3806;52.270;10.544;2023-07-24T04:08:07;3.13;;;1.45;;
7529;SDS011;3806;52.270;10.544;2023-07-24T04:10:33;2.13;;;1.40;;
7529;SDS011;3806;52.270;10.544;2023-07-24T04:12:58;1.63;;;1.20;;
7529;SDS011;3806;52.270;10.544;2023-07-24T04:15:24;4.90;;;1.85;;
7529;SDS011;3806;52.270;10.544;2023-07-24T04:17:49;3.05;;;1.55;;
7529;SDS011;3806;52.270;10.544;2023-07-24T04:20:15;2.70;;;1.48;;
7529;SDS011;3806;52.270;10.544;2023-07-24T04:22:40;3.10;;;1.50;;
7529;SDS011;3806;52.270;10.544;2023-07-24T04:25:06;2.63;;;1.45;;
7529;SDS011;3806;52.270;10.544;2023-07-24T04:27:32;6.10;;;1.77;;
7529;SDS011;3806;52.270;10.544;2023-07-24T04:29:57;3.47;;;1.30;;
7529;SDS011;3806;52.270;10.544;2023-07-24T04:32:23;2.38;;;1.30;;
7529;SDS011;3806;52.270;10.544;2023-07-24T04:34:50;2.38;;;1.50;;
7529;SDS011;3806;52.270;10.544;2023-07-24T04:37:16;2.42;;;1.58;;
7529;SDS011;3806;52.270;10.544;2023-07-24T04:39:41;3.95;;;1.75;;
7529;SDS011;3806;52.270;10.544;2023-07-24T04:42:07;2.15;;;1.25;;
7529;SDS011;3806;52.270;10.544;2023-07-24T04:44:32;2.30;;;1.50;;
7529;SDS011;3806;52.270;10.544;2023-07-24T04:46:58;1.90;;;1.20;;
7529;SDS011;3806;52.270;10.544;2023-07-24T04:49:24;1.73;;;1.20;;
7529;SDS011;3806;52.270;10.544;2023-07-24T04:51:49;1.98;;;1.10;;
7529;SDS011;3806;52.270;10.544;2023-07-24T04:54:16;2.15;;;1.15;;
7529;SDS011;3806;52.270;10.544;2023-07-24T04:56:42;1.65;;;1.20;;
7529;SDS011;3806;52.270;10.544;2023-07-24T04:59:08;1.40;;;1.13;;
7529;SDS011;3806;52.270;10.544;2023-07-24T05:01:33;2.42;;;0.82;;
7529;SDS011;3806;52.270;10.544;2023-07-24T05:03:59;1.88;;;1.00;;
7529;SDS011;3806;52.270;10.544;2023-07-24T05:06:24;2.85;;;1.35;;
7529;SDS011;3806;52.270;10.544;2023-07-24T05:08:52;1.83;;;1.10;;
7529;SDS011;3806;52.270;10.544;2023-07-24T05:11:18;2.92;;;0.90;;
7529;SDS011;3806;52.270;10.544;2023-07-24T05:13:43;1.83;;;1.17;;
7529;SDS011;3806;52.270;10.544;2023-07-24T05:16:09;4.20;;;1.25;;
7529;SDS011;3806;52.270;10.544;2023-07-24T05:18:34;2.03;;;1.27;;
7529;SDS011;3806;52.270;10.544;2023-07-24T05:21:00;1.92;;;1.00;;
7529;SDS011;3806;52.270;10.544;2023-07-24T05:23:26;1.92;;;1.02;;
7529;SDS011;3806;52.270;10.544;2023-07-24T05:25:58;2.10;;;1.10;;
7529;SDS011;3806;52.270;10.544;2023-07-24T05:28:25;2.42;;;1.35;;
7529;SDS011;3806;52.270;10.544;2023-07-24T05:30:52;1.85;;;0.82;;
7529;SDS011;3806;52.270;10.544;2023-07-24T05:33:17;2.88;;;0.90;;
7529;SDS011;3806;52.270;10.544;2023-07-24T05:35:43;1.58;;;1.20;;
7529;SDS011;3806;52.270;10.544;2023-07-24T05:38:09;1.27;;;0.80;;
7529;SDS011;3806;52.270;10.544;2023-07-24T05:40:34;1.70;;;1.05;;
7529;SDS011;3806;52.270;10.544;2023-07-24T05:43:00;0.90;;;0.85;;
7529;SDS011;3806;52.270;10.544;2023-07-24T05:45:26;1.92;;;1.38;;
7529;SDS011;3806;52.270;10.544;2023-07-24T05:47:52;2.53;;;1.10;;
7529;SDS011;3806;52.270;10.544;2023-07-24T05:50:18;2.85;;;1.20;;
7529;SDS011;3806;52.270;10.544;2023-07-24T05:52:44;3.10;;;1.25;;
7529;SDS011;3806;52.270;10.544;2023-07-24T05:55:09;1.77;;;1.20;;
7529;SDS011;3806;52.270;10.544;2023-07-24T05:57:35;1.42;;;0.80;;
7529;SDS011;3806;52.270;10.544;2023-07-24T06:00:02;1.65;;;1.27;;
7529;SDS011;3806;52.270;10.544;2023-07-24T06:02:31;1.92;;;1.30;;
7529;SDS011;3806;52.270;10.544;2023-07-24T06:04:56;3.08;;;1.25;;
7529;SDS011;3806;52.270;10.544;2023-07-24T06:07:22;1.50;;;1.10;;
7529;SDS011;3806;52.270;10.544;2023-07-24T06:09:48;1.63;;;1.23;;
7529;SDS011;3806;52.270;10.544;2023-07-24T06:12:14;2.38;;;1.40;;
7529;SDS011;3806;52.270;10.544;2023-07-24T06:14:40;3.42;;;1.55;;
7529;SDS011;3806;52.270;10.544;2023-07-24T06:17:05;4.60;;;1.08;;
7529;SDS011;3806;52.270;10.544;2023-07-24T06:19:31;2.22;;;1.40;;
7529;SDS011;3806;52.270;10.544;2023-07-24T06:21:56;3.30;;;1.23;;
7529;SDS011;3806;52.270;10.544;2023-07-24T06:24:22;1.85;;;1.20;;
7529;SDS011;3806;52.270;10.544;2023-07-24T06:26:48;5.10;;;1.20;;
7529;SDS011;3806;52.270;10.544;2023-07-24T06:29:15;2.20;;;1.25;;
7529;SDS011;3806;52.270;10.544;2023-07-24T06:31:41;2.28;;;1.40;;
7529;SDS011;3806;52.270;10.544;2023-07-24T06:34:06;2.22;;;1.30;;
7529;SDS011;3806;52.270;10.544;2023-07-24T06:36:32;3.03;;;1.15;;
7529;SDS011;3806;52.270;10.544;2023-07-24T06:38:57;2.78;;;1.35;;
7529;SDS011;3806;52.270;10.544;2023-07-24T06:41:23;4.82;;;1.40;;
7529;SDS011;3806;52.270;10.544;2023-07-24T06:43:49;2.17;;;1.20;;
7529;SDS011;3806;52.270;10.544;2023-07-24T06:46:14;3.55;;;1.23;;
7529;SDS011;3806;52.270;10.544;2023-07-24T06:48:40;2.60;;;1.50;;
7529;SDS011;3806;52.270;10.544;2023-07-24T06:51:05;2.83;;;1.50;;
7529;SDS011;3806;52.270;10.544;2023-07-24T06:53:31;3.78;;;1.30;;
7529;SDS011;3806;52.270;10.544;2023-07-24T06:55:56;2.05;;;1.35;;
7529;SDS011;3806;52.270;10.544;2023-07-24T06:58:22;1.80;;;1.10;;
7529;SDS011;3806;52.270;10.544;2023-07-24T07:00:47;2.92;;;1.52;;
7529;SDS011;3806;52.270;10.544;2023-07-24T07:03:13;2.70;;;1.40;;
7529;SDS011;3806;52.270;10.544;2023-07-24T07:05:38;2.42;;;1.38;;
7529;SDS011;3806;52.270;10.544;2023-07-24T07:08:04;2.58;;;1.25;;
7529;SDS011;3806;52.270;10.544;2023-07-24T07:10:32;2.53;;;1.77;;
7529;SDS011;3806;52.270;10.544;2023-07-24T07:12:58;2.67;;;1.35;;
7529;SDS011;3806;52.270;10.544;2023-07-24T07:15:24;2.63;;;1.63;;
7529;SDS011;3806;52.270;10.544;2023-07-24T07:17:49;2.80;;;1.50;;
7529;SDS011;3806;52.270;10.544;2023-07-24T07:20:15;2.97;;;1.50;;
7529;SDS011;3806;52.270;10.544;2023-07-24T07:22:40;2.42;;;1.40;;
7529;SDS011;3806;52.270;10.544;2023-07-24T07:25:06;3.15;;;1.90;;
7529;SDS011;3806;52.270;10.544;2023-07-24T07:27:32;3.20;;;1.48;;
7529;SDS011;3806;52.270;10.544;2023-07-24T07:29:57;3.08;;;1.60;;
7529;SDS011;3806;52.270;10.544;2023-07-24T07:32:23;2.17;;;1.52;;
7529;SDS011;3806;52.270;10.544;2023-07-24T07:34:49;2.83;;;1.70;;
7529;SDS011;3806;52.270;10.544;2023-07-24T07:37:15;2.83;;;1.38;;
7529;SDS011;3806;52.270;10.544;2023-07-24T07:39:41;2.58;;;1.73;;
7529;SDS011;3806;52.270;10.544;2023-07-24T07:42:06;2.80;;;1.60;;
7529;SDS011;3806;52.270;10.544;2023-07-24T07:44:32;2.97;;;1.83;;
7529;SDS011;3806;52.270;10.544;2023-07-24T07:46:57;4.95;;;2.13;;
7529;SDS011;3806;52.270;10.544;2023-07-24T07:49:23;5.35;;;1.50;;
7529;SDS011;3806;52.270;10.544;2023-07-24T07:51:48;2.90;;;1.80;;
7529;SDS011;3806;52.270;10.544;2023-07-24T07:54:14;4.07;;;1.83;;
7529;SDS011;3806;52.270;10.544;2023-07-24T07:56:40;4.70;;;1.80;;
7529;SDS011;3806;52.270;10.544;2023-07-24T07:59:06;3.20;;;1.83;;
7529;SDS011;3806;52.270;10.544;2023-07-24T08:01:31;4.35;;;2.03;;
7529;SDS011;3806;52.270;10.544;2023-07-24T08:03:57;4.63;;;2.38;;
7529;SDS011;3806;52.270;10.544;2023-07-24T08:06:23;3.17;;;2.13;;
7529;SDS011;3806;52.270;10.544;2023-07-24T08:08:49;3.20;;;2.05;;
7529;SDS011;3806;52.270;10.544;2023-07-24T08:11:15;4.32;;;2.03;;
7529;SDS011;3806;52.270;10.544;2023-07-24T08:13:41;4.25;;;1.65;;
7529;SDS011;3806;52.270;10.544;2023-07-24T08:16:16;3.75;;;2.33;;
7529;SDS011;3806;52.270;10.544;2023-07-24T08:18:44;5.75;;;2.10;;
7529;SDS011;3806;52.270;10.544;2023-07-24T08:21:11;4.10;;;2.28;;
7529;SDS011;3806;52.270;10.544;2023-07-24T08:23:36;2.65;;;2.05;;
7529;SDS011;3806;52.270;10.544;2023-07-24T08:26:02;4.97;;;1.80;;
7529;SDS011;3806;52.270;10.544;2023-07-24T08:28:27;6.05;;;2.22;;
7529;SDS011;3806;52.270;10.544;2023-07-24T08:30:57;5.88;;;2.25;;
7529;SDS011;3806;52.270;10.544;2023-07-24T08:33:23;3.50;;;2.47;;
7529;SDS011;3806;52.270;10.544;2023-07-24T08:35:59;4.10;;;1.80;;
7529;SDS011;3806;52.270;10.544;2023-07-24T08:38:26;3.20;;;1.83;;
7529;SDS011;3806;52.270;10.544;2023-07-24T08:41:07;4.97;;;2.22;;
7529;SDS011;3806;52.270;10.544;2023-07-24T08:43:35;5.65;;;2.28;;
7529;SDS011;3806;52.270;10.544;2023-07-24T08:46:02;4.50;;;2.08;;
7529;SDS011;3806;52.270;10.544;2023-07-24T08:48:30;3.70;;;2.17;;
7529;SDS011;3806;52.270;10.544;2023-07-24T08:50:59;4.80;;;2.05;;
7529;SDS011;3806;52.270;10.544;2023-07-24T08:53:24;5.10;;;2.20;;
7529;SDS011;3806;52.270;10.544;2023-07-24T08:55:50;4.40;;;2.17;;
7529;SDS011;3806;52.270;10.544;2023-07-24T08:58:17;3.40;;;1.98;;
7529;SDS011;3806;52.270;10.544;2023-07-24T09:00:43;4.30;;;2.10;;
7529;SDS011;3806;52.270;10.544;2023-07-24T09:03:08;4.78;;;2.03;;
7529;SDS011;3806;52.270;10.544;2023-07-24T09:05:34;3.88;;;2.20;;
7529;SDS011;3806;52.270;10.544;2023-07-24T09:08:00;3.13;;;2.03;;
7529;SDS011;3806;52.270;10.544;2023-07-24T09:10:26;4.00;;;2.05;;
7529;SDS011;3806;52.270;10.544;2023-07-24T09:12:51;2.92;;;1.83;;
7529;SDS011;3806;52.270;10.544;2023-07-24T09:15:17;4.45;;;1.55;;
7529;SDS011;3806;52.270;10.544;2023-07-24T09:17:52;3.83;;;1.88;;
7529;SDS011;3806;52.270;10.544;2023-07-24T09:20:19;5.05;;;1.83;;
7529;SDS011;3806;52.270;10.544;2023-07-24T09:22:52;3.35;;;1.95;;
7529;SDS011;3806;52.270;10.544;2023-07-24T09:25:28;2.35;;;1.70;;
7529;SDS011;3806;52.270;10.544;2023-07-24T09:27:56;4.15;;;1.77;;
7529;SDS011;3806;52.270;10.544;2023-07-24T09:30:25;5.32;;;2.05;;
7529;SDS011;3806;52.270;10.544;2023-07-24T09:32:53;4.40;;;2.00;;
7529;SDS011;3806;52.270;10.544;2023-07-24T09:35:20;2.20;;;1.52;;
7529;SDS011;3806;52.270;10.544;2023-07-24T09:37:51;3.35;;;1.70;;
7529;SDS011;3806;52.270;10.544;2023-07-24T09:40:26;3.33;;;1.70;;
7529;SDS011;3806;52.270;10.544;2023-07-24T09:42:51;2.92;;;1.70;;
7529;SDS011;3806;52.270;10.544;2023-07-24T09:45:17;3.03;;;1.80;;
7529;SDS011;3806;52.270;10.544;2023-07-24T09:47:42;2.90;;;1.40;;
7529;SDS011;3806;52.270;10.544;2023-07-24T09:50:09;2.10;;;1.60;;
7529;SDS011;3806;52.270;10.544;2023-07-24T09:52:35;3.70;;;1.70;;
7529;SDS011;3806;52.270;10.544;2023-07-24T09:55:09;3.30;;;1.60;;
7529;SDS011;3806;52.270;10.544;2023-07-24T09:57:36;1.92;;;1.30;;
7529;SDS011;3806;52.270;10.544;2023-07-24T10:00:03;2.70;;;2.00;;
7529;SDS011;3806;52.270;10.544;2023-07-24T10:02:29;2.92;;;1.65;;
7529;SDS011;3806;52.270;10.544;2023-07-24T10:04:55;3.50;;;1.40;;
7529;SDS011;3806;52.270;10.544;2023-07-24T10:07:22;4.00;;;1.65;;
7529;SDS011;3806;52.270;10.544;2023-07-24T10:09:49;3.33;;;1.58;;
7529;SDS011;3806;52.270;10.544;2023-07-24T10:12:18;2.05;;;1.40;;
7529;SDS011;3806;52.270;10.544;2023-07-24T10:14:45;2.28;;;1.38;;
7529;SDS011;3806;52.270;10.544;2023-07-24T10:17:12;2.70;;;1.40;;
7529;SDS011;3806;52.270;10.544;2023-07-24T10:19:41;2.65;;;1.33;;
7529;SDS011;3806;52.270;10.544;2023-07-24T10:22:17;2.47;;;1.58;;
7529;SDS011;3806;52.270;10.544;2023-07-24T10:24:50;3.97;;;2.05;;
7529;SDS011;3806;52.270;10.544;2023-07-24T10:27:22;2.53;;;1.63;;
7529;SDS011;3806;52.270;10.544;2023-07-24T10:30:01;3.78;;;1.95;;
7529;SDS011;3806;52.270;10.544;2023-07-24T10:32:28;2.67;;;1.50;;
7529;SDS011;3806;52.270;10.544;2023-07-24T10:35:05;2.75;;;1.77;;
7529;SDS011;3806;52.270;10.544;2023-07-24T10:37:34;2.67;;;1.27;;
7529;SDS011;3806;52.270;10.544;2023-07-24T10:40:03;2.90;;;1.38;;
7529;SDS011;3806;52.270;10.544;2023-07-24T10:42:30;2.33;;;1.40;;
7529;SDS011;3806;52.270;10.544;2023-07-24T10:45:05;2.20;;;1.25;;
7529;SDS011;3806;52.270;10.544;2023-07-24T10:47:32;1.98;;;1.23;;
7529;SDS011;3806;52.270;10.544;2023-07-24T10:49:58;1.65;;;1.10;;
7529;SDS011;3806;52.270;10.544;2023-07-24T10:52:35;1.48;;;0.95;;
7529;SDS011;3806;52.270;10.544;2023-07-24T10:55:03;1.45;;;1.10;;
7529;SDS011;3806;52.270;10.544;2023-07-24T10:57:29;1.35;;;0.70;;
7529;SDS011;3806;52.270;10.544;2023-07-24T10:59:55;2.35;;;1.23;;
7529;SDS011;3806;52.270;10.544;2023-07-24T11:02:21;1.70;;;1.10;;
7529;SDS011;3806;52.270;10.544;2023-07-24T11:04:47;1.27;;;0.88;;
7529;SDS011;3806;52.270;10.544;2023-07-24T11:07:13;1.40;;;1.02;;
7529;SDS011;3806;52.270;10.544;2023-07-24T11:09:39;1.88;;;1.00;;
7529;SDS011;3806;52.270;10.544;2023-07-24T11:14:51;2.42;;;1.45;;
7529;SDS011;3806;52.270;10.544;2023-07-24T11:17:20;4.75;;;1.38;;
7529;SDS011;3806;52.270;10.544;2023-07-24T11:19:48;2.05;;;1.20;;
7529;SDS011;3806;52.270;10.544;2023-07-24T11:22:14;1.63;;;1.02;;
7529;SDS011;3806;52.270;10.544;2023-07-24T11:24:46;1.83;;;1.10;;
7529;SDS011;3806;52.270;10.544;2023-07-24T11:27:12;3.00;;;1.05;;
7529;SDS011;3806;52.270;10.544;2023-07-24T11:29:47;1.58;;;1.10;;
7529;SDS011;3806;52.270;10.544;2023-07-24T11:32:17;6.40;;;1.40;;
7529;SDS011;3806;52.270;10.544;2023-07-24T11:34:46;2.28;;;1.00;;
7529;SDS011;3806;52.270;10.544;2023-07-24T11:37:13;1.90;;;1.30;;
7529;SDS011;3806;52.270;10.544;2023-07-24T11:39:39;3.03;;;1.30;;
7529;SDS011;3806;52.270;10.544;2023-07-24T11:42:05;1.58;;;1.15;;
7529;SDS011;3806;52.270;10.544;2023-07-24T11:44:31;2.30;;;1.38;;
7529;SDS011;3806;52.270;10.544;2023-07-24T11:47:03;2.38;;;1.50;;
7529;SDS011;3806;52.270;10.544;2023-07-24T11:49:32;2.08;;;1.45;;
7529;SDS011;3806;52.270;10.544;2023-07-24T11:52:02;2.13;;;1.45;;
7529;SDS011;3806;52.270;10.544;2023-07-24T11:54:29;1.27;;;1.13;;
7529;SDS011;3806;52.270;10.544;2023-07-24T11:56:55;2.22;;;1.58;;
7529;SDS011;3806;52.270;10.544;2023-07-24T11:59:20;3.13;;;2.05;;
7529;SDS011;3806;52.270;10.544;2023-07-24T12:01:46;2.83;;;1.67;;
7529;SDS011;3806;52.270;10.544;2023-07-24T12:04:13;2.72;;;1.60;;
7529;SDS011;3806;52.270;10.544;2023-07-24T12:06:39;2.80;;;1.48;;
7529;SDS011;3806;52.270;10.544;2023-07-24T12:09:05;2.47;;;1.75;;
7529;SDS011;3806;52.270;10.544;2023-07-24T12:11:42;3.63;;;1.63;;
7529;SDS011;3806;52.270;10.544;2023-07-24T12:14:09;1.88;;;1.35;;
7529;SDS011;3806;52.270;10.544;2023-07-24T12:16:35;3.63;;;1.50;;
7529;SDS011;3806;52.270;10.544;2023-07-24T12:19:01;3.25;;;1.70;;
7529;SDS011;3806;52.270;10.544;2023-07-24T12:21:27;2.92;;;1.58;;
7529;SDS011;3806;52.270;10.544;2023-07-24T12:23:52;4.40;;;1.52;;
7529;SDS011;3806;52.270;10.544;2023-07-24T12:26:18;2.85;;;1.80;;
7529;SDS011;3806;52.270;10.544;2023-07-24T12:28:43;4.18;;;1.38;;
7529;SDS011;3806;52.270;10.544;2023-07-24T12:31:09;4.05;;;1.95;;
7529;SDS011;3806;52.270;10.544;2023-07-24T12:33:35;2.08;;;1.58;;
7529;SDS011;3806;52.270;10.544;2023-07-24T12:36:03;3.05;;;1.60;;
7529;SDS011;3806;52.270;10.544;2023-07-24T12:38:29;2.63;;;1.60;;
7529;SDS011;3806;52.270;10.544;2023-07-24T12:40:55;2.65;;;1.60;;
7529;SDS011;3806;52.270;10.544;2023-07-24T12:43:20;2.78;;;1.52;;
7529;SDS011;3806;52.270;10.544;2023-07-24T12:45:46;3.17;;;1.63;;
7529;SDS011;3806;52.270;10.544;2023-07-24T12:48:11;3.92;;;2.00;;
7529;SDS011;3806;52.270;10.544;2023-07-24T12:50:37;2.67;;;2.00;;
7529;SDS011;3806;52.270;10.544;2023-07-24T12:53:02;3.17;;;1.77;;
7529;SDS011;3806;52.270;10.544;2023-07-24T12:55:28;4.40;;;1.70;;
7529;SDS011;3806;52.270;10.544;2023-07-24T12:57:54;2.20;;;1.65;;
7529;SDS011;3806;52.270;10.544;2023-07-24T13:00:21;2.63;;;1.63;;
7529;SDS011;3806;52.270;10.544;2023-07-24T13:02:48;2.78;;;1.90;;
7529;SDS011;3806;52.270;10.544;2023-07-24T13:05:14;2.50;;;1.88;;
7529;SDS011;3806;52.270;10.544;2023-07-24T13:07:44;4.13;;;1.98;;
7529;SDS011;3806;52.270;10.544;2023-07-24T13:10:11;3.20;;;2.03;;
7529;SDS011;3806;52.270;10.544;2023-07-24T13:12:36;4.13;;;2.30;;
7529;SDS011;3806;52.270;10.544;2023-07-24T13:15:02;2.85;;;1.63;;
7529;SDS011;3806;52.270;10.544;2023-07-24T13:17:28;2.28;;;1.60;;
7529;SDS011;3806;52.270;10.544;2023-07-24T13:19:56;3.10;;;1.90;;
7529;SDS011;3806;52.270;10.544;2023-07-24T13:22:22;3.35;;;1.60;;
7529;SDS011;3806;52.270;10.544;2023-07-24T13:24:47;2.00;;;1.30;;
7529;SDS011;3806;52.270;10.544;2023-07-24T13:27:13;2.28;;;1.70;;
7529;SDS011;3806;52.270;10.544;2023-07-24T13:29:38;2.95;;;1.85;;
7529;SDS011;3806;52.270;10.544;2023-07-24T13:32:04;3.42;;;2.33;;
7529;SDS011;3806;52.270;10.544;2023-07-24T13:34:32;3.72;;;2.22;;
7529;SDS011;3806;52.270;10.544;2023-07-24T13:36:58;3.45;;;2.40;;
7529;SDS011;3806;52.270;10.544;2023-07-24T13:39:23;2.95;;;2.30;;
7529;SDS011;3806;52.270;10.544;2023-07-24T13:41:53;4.65;;;2.63;;
7529;SDS011;3806;52.270;10.544;2023-07-24T13:44:19;4.50;;;3.08;;
7529;SDS011;3806;52.270;10.544;2023-07-24T13:46:45;4.90;;;2.50;;
7529;SDS011;3806;52.270;10.544;2023-07-24T13:49:10;4.20;;;2.95;;
7529;SDS011;3806;52.270;10.544;2023-07-24T13:51:36;5.22;;;2.80;;
7529;SDS011;3806;52.270;10.544;2023-07-24T13:54:01;5.07;;;2.60;;
7529;SDS011;3806;52.270;10.544;2023-07-24T13:56:27;4.55;;;2.42;;
7529;SDS011;3806;52.270;10.544;2023-07-24T13:58:54;4.07;;;2.67;;
7529;SDS011;3806;52.270;10.544;2023-07-24T14:01:20;3.42;;;2.30;;
7529;SDS011;3806;52.270;10.544;2023-07-24T14:03:46;5.22;;;2.55;;
7529;SDS011;3806;52.270;10.544;2023-07-24T14:06:12;6.78;;;2.50;;
7529;SDS011;3806;52.270;10.544;2023-07-24T14:08:37;3.78;;;2.10;;
7529;SDS011;3806;52.270;10.544;2023-07-24T14:11:03;3.72;;;1.92;;
7529;SDS011;3806;52.270;10.544;2023-07-24T14:13:28;3.25;;;2.42;;
7529;SDS011;3806;52.270;10.544;2023-07-24T14:15:54;4.05;;;2.20;;
7529;SDS011;3806;52.270;10.544;2023-07-24T14:18:20;2.13;;;1.67;;
7529;SDS011;3806;52.270;10.544;2023-07-24T14:20:45;2.60;;;2.10;;
7529;SDS011;3806;52.270;10.544;2023-07-24T14:23:12;2.78;;;1.83;;
7529;SDS011;3806;52.270;10.544;2023-07-24T14:25:38;3.35;;;2.08;;
7529;SDS011;3806;52.270;10.544;2023-07-24T14:28:04;2.80;;;2.20;;
7529;SDS011;3806;52.270;10.544;2023-07-24T14:30:29;2.75;;;2.15;;
7529;SDS011;3806;52.270;10.544;2023-07-24T14:32:55;4.07;;;1.88;;
7529;SDS011;3806;52.270;10.544;2023-07-24T14:35:20;2.83;;;2.10;;
7529;SDS011;3806;52.270;10.544;2023-07-24T14:37:46;2.55;;;1.80;;
7529;SDS011;3806;52.270;10.544;2023-07-24T14:40:11;2.95;;;1.67;;
7529;SDS011;3806;52.270;10.544;2023-07-24T14:42:37;2.78;;;2.00;;
7529;SDS011;3806;52.270;10.544;2023-07-24T14:45:03;4.18;;;1.98;;
7529;SDS011;3806;52.270;10.544;2023-07-24T14:47:29;4.68;;;1.83;;
7529;SDS011;3806;52.270;10.544;2023-07-24T14:49:54;4.50;;;2.08;;
7529;SDS011;3806;52.270;10.544;2023-07-24T14:52:21;2.95;;;2.00;;
7529;SDS011;3806;52.270;10.544;2023-07-24T14:54:47;3.65;;;1.77;;
7529;SDS011;3806;52.270;10.544;2023-07-24T14:57:12;2.75;;;2.20;;
7529;SDS011;3806;52.270;10.544;2023-07-24T14:59:38;2.78;;;1.65;;
7529;SDS011;3806;52.270;10.544;2023-07-24T15:02:03;3.42;;;2.00;;